Time;durP1;ratioP1;P1;durP2;ratioP2;P2;SDS_P1;SDS_P2;PMS_P1;PMS_P2;Temp;Humidity;BMP_temperature;BMP_pressure;BME280_temperature;BME280_humidity;BME280_pressure;Samples;Min_cycle;Max_cycle;Signal;HPM_P1;HPM_P2
2022/09/08 00:00:47;;;;;;;3.22;1.90;;;22.70;81.90;;;;;;5079754;28;20415;-82
2022/09/08 00:03:15;;;;;;;2.90;1.60;;;22.70;81.80;;;;;;5078223;28;20693;-81
2022/09/08 00:05:43;;;;;;;3.78;1.92;;;22.70;81.80;;;;;;5078901;28;20062;-81
2022/09/08 00:08:09;;;;;;;3.45;1.70;;;22.70;81.80;;;;;;5089583;28;20021;-81
2022/09/08 00:10:37;;;;;;;3.50;1.73;;;22.70;81.80;;;;;;5072471;28;20962;-81
2022/09/08 00:13:03;;;;;;;4.22;1.70;;;22.70;81.80;;;;;;5066149;28;20029;-82
2022/09/08 00:15:29;;;;;;;3.58;1.98;;;22.70;81.80;;;;;;5063787;28;20032;-82
2022/09/08 00:17:55;;;;;;;3.65;2.05;;;22.70;81.90;;;;;;5072749;28;20049;-84
2022/09/08 00:20:20;;;;;;;3.42;2.00;;;22.70;81.90;;;;;;5073686;28;20028;-81
2022/09/08 00:22:46;;;;;;;3.53;1.70;;;22.60;81.90;;;;;;5069992;28;20021;-82
2022/09/08 00:25:11;;;;;;;3.80;1.88;;;22.60;82.00;;;;;;5072704;28;20036;-80
2022/09/08 00:27:37;;;;;;;3.60;1.88;;;22.60;82.00;;;;;;5074059;28;20016;-82
2022/09/08 00:30:03;;;;;;;3.15;1.83;;;22.60;82.00;;;;;;5061364;28;20439;-83
2022/09/08 00:32:29;;;;;;;2.75;1.65;;;22.60;82.00;;;;;;5074431;28;20028;-81
2022/09/08 00:34:55;;;;;;;3.55;2.00;;;22.60;82.00;;;;;;5088050;28;20035;-82
2022/09/08 00:37:21;;;;;;;2.88;1.85;;;22.60;82.00;;;;;;5088700;28;20031;-82
2022/09/08 00:39:46;;;;;;;4.20;2.03;;;22.60;82.00;;;;;;5088425;28;20059;-81
2022/09/08 00:42:12;;;;;;;3.88;1.75;;;22.60;82.00;;;;;;5088946;28;20047;-82
2022/09/08 00:44:48;;;;;;;2.58;1.70;;;22.60;81.90;;;;;;5081380;28;20032;-82
2022/09/08 00:47:50;;;;;;;2.65;1.52;;;22.60;81.80;;;;;;5068752;28;20031;-82
2022/09/08 00:50:21;;;;;;;2.80;1.52;;;22.70;81.80;;;;;;5075119;28;20028;-82
2022/09/08 00:52:56;;;;;;;3.65;1.70;;;22.70;82.30;;;;;;5087560;28;20081;-82
2022/09/08 00:55:21;;;;;;;3.13;1.92;;;22.60;81.70;;;;;;5069200;28;20512;-81
2022/09/08 00:57:48;;;;;;;3.65;2.00;;;22.60;81.70;;;;;;5078286;28;20054;-81
2022/09/08 01:00:20;;;;;;;3.25;1.80;;;22.60;81.70;;;;;;5085861;28;20032;-82
2022/09/08 01:02:46;;;;;;;2.97;1.73;;;22.70;82.40;;;;;;5082728;28;20028;-82
2022/09/08 01:05:18;;;;;;;2.72;1.70;;;22.60;81.80;;;;;;5077164;28;20044;-82
2022/09/08 01:12:43;;;;;;;3.28;1.75;;;22.60;81.90;;;;;;5086711;28;20085;-82
2022/09/08 01:14:09;;;;;;;3.35;1.90;;;22.60;82.00;;;;;;5080566;28;20040;-82
2022/09/08 01:16:41;;;;;;;2.55;1.70;;;22.50;81.90;;;;;;5089959;28;20031;-83
2022/09/08 01:19:16;;;;;;;3.13;1.80;;;22.50;81.90;;;;;;5087595;28;20119;-82
2022/09/08 01:22:03;;;;;;;2.67;1.77;;;22.50;81.90;;;;;;5071562;28;20028;-83
2022/09/08 01:24:40;;;;;;;3.55;1.90;;;22.50;81.90;;;;;;5088882;28;20031;-82
2022/09/08 01:27:28;;;;;;;3.58;1.70;;;22.60;81.90;;;;;;5055553;28;20032;-82
2022/09/08 01:29:59;;;;;;;2.78;1.70;;;22.60;81.90;;;;;;5054816;28;20060;-82
2022/09/08 01:32:31;;;;;;;2.95;1.85;;;22.60;81.80;;;;;;5070066;28;20029;-81
2022/09/08 01:34:57;;;;;;;3.22;1.80;;;22.60;81.70;;;;;;5071929;28;20028;-83
2022/09/08 01:37:22;;;;;;;3.38;2.00;;;22.60;81.60;;;;;;5076468;28;20034;-81
2022/09/08 01:39:48;;;;;;;3.17;1.70;;;22.60;81.60;;;;;;5093489;28;20024;-80
2022/09/08 01:42:14;;;;;;;2.65;1.70;;;22.60;81.70;;;;;;5094331;28;20030;-82
2022/09/08 01:44:39;;;;;;;3.22;1.95;;;22.60;81.70;;;;;;5093233;28;20123;-81
2022/09/08 01:47:05;;;;;;;3.15;1.90;;;22.60;81.80;;;;;;5082396;28;20074;-81
2022/09/08 01:49:30;;;;;;;2.45;1.67;;;22.60;81.80;;;;;;5078177;28;20028;-81
2022/09/08 01:51:56;;;;;;;3.00;1.65;;;22.50;81.70;;;;;;5056576;28;20039;-81
2022/09/08 01:54:21;;;;;;;3.00;1.80;;;22.50;81.80;;;;;;5059802;28;20543;-82
2022/09/08 01:56:47;;;;;;;3.25;1.90;;;22.50;81.90;;;;;;5083803;28;20373;-80
2022/09/08 01:59:13;;;;;;;3.38;1.73;;;22.50;81.90;;;;;;5089799;28;20028;-80
2022/09/08 02:01:38;;;;;;;3.42;2.00;;;22.50;81.90;;;;;;5072507;28;20035;-81
2022/09/08 02:04:04;;;;;;;3.20;1.80;;;22.50;81.90;;;;;;5075050;28;20119;-80
2022/09/08 02:06:30;;;;;;;3.10;1.70;;;22.40;81.80;;;;;;5088799;28;20023;-80
2022/09/08 02:08:56;;;;;;;3.53;1.90;;;22.50;81.90;;;;;;5075971;28;20028;-81
2022/09/08 02:11:22;;;;;;;2.78;1.80;;;22.50;81.90;;;;;;5052208;28;20031;-81
2022/09/08 02:13:48;;;;;;;2.50;1.65;;;22.50;81.80;;;;;;5054122;28;20104;-81
2022/09/08 02:16:14;;;;;;;3.05;1.80;;;22.50;81.70;;;;;;5052611;28;20036;-81
2022/09/08 02:18:40;;;;;;;3.53;1.60;;;22.50;82.10;;;;;;5072311;28;20044;-81
2022/09/08 02:21:15;;;;;;;2.70;1.55;;;22.50;81.60;;;;;;5090863;28;20043;-82
2022/09/08 02:23:43;;;;;;;4.57;1.85;;;22.50;81.60;;;;;;5092058;28;20085;-83
2022/09/08 02:26:15;;;;;;;3.40;1.88;;;22.50;81.60;;;;;;5095259;28;20032;-82
2022/09/08 02:28:41;;;;;;;3.10;1.90;;;22.50;81.60;;;;;;5081606;28;20036;-82
2022/09/08 02:31:06;;;;;;;2.58;1.80;;;22.50;81.60;;;;;;5084474;28;20021;-80
2022/09/08 02:33:32;;;;;;;3.85;2.00;;;22.50;81.70;;;;;;5066598;28;20766;-82
2022/09/08 02:35:58;;;;;;;2.78;1.83;;;22.50;81.80;;;;;;5076874;28;20021;-82
2022/09/08 02:38:25;;;;;;;3.00;2.03;;;22.50;81.80;;;;;;5080729;28;20456;-82
2022/09/08 02:40:51;;;;;;;3.63;2.00;;;22.50;81.80;;;;;;5085101;28;20121;-81
2022/09/08 02:43:17;;;;;;;3.22;1.80;;;22.50;81.80;;;;;;5065286;28;20032;-82
2022/09/08 02:45:42;;;;;;;3.67;2.05;;;22.40;81.80;;;;;;5065416;28;20024;-82
2022/09/08 02:48:08;;;;;;;3.05;1.80;;;22.40;81.80;;;;;;5088540;28;20388;-82
2022/09/08 02:50:34;;;;;;;3.05;2.08;;;22.40;81.90;;;;;;5088701;28;20024;-81
2022/09/08 02:53:00;;;;;;;2.60;1.83;;;22.40;81.80;;;;;;5085161;28;20477;-83
2022/09/08 02:55:25;;;;;;;2.90;1.90;;;22.40;81.80;;;;;;5080555;28;20458;-81
2022/09/08 02:57:51;;;;;;;3.33;1.88;;;22.50;81.80;;;;;;5071192;28;20127;-81
2022/09/08 03:00:18;;;;;;;2.67;1.77;;;22.50;81.70;;;;;;5077591;28;20036;-82
2022/09/08 03:02:44;;;;;;;3.42;1.90;;;22.50;81.60;;;;;;5072423;28;20029;-82
2022/09/08 03:05:10;;;;;;;3.17;1.85;;;22.50;81.50;;;;;;5075276;28;20505;-81
2022/09/08 03:07:36;;;;;;;3.50;2.13;;;22.50;81.50;;;;;;5072789;28;20052;-81
2022/09/08 03:10:04;;;;;;;4.00;2.25;;;22.50;81.50;;;;;;5070389;28;20032;-81
2022/09/08 03:12:30;;;;;;;3.03;2.05;;;22.50;81.60;;;;;;5071052;28;20090;-82
2022/09/08 03:14:56;;;;;;;3.03;1.92;;;22.50;81.60;;;;;;5071397;28;20021;-79
2022/09/08 03:17:22;;;;;;;2.70;1.80;;;22.40;81.60;;;;;;5072853;28;20089;-81
2022/09/08 03:19:48;;;;;;;4.95;2.08;;;22.40;81.60;;;;;;5086810;28;20059;-81
2022/09/08 03:22:14;;;;;;;3.35;2.10;;;22.40;81.70;;;;;;5072476;28;20031;-82
2022/09/08 03:24:40;;;;;;;2.95;1.90;;;22.40;81.80;;;;;;5070923;28;20538;-80
2022/09/08 03:27:06;;;;;;;3.10;1.85;;;22.40;81.70;;;;;;5089851;28;20070;-81
2022/09/08 03:29:32;;;;;;;3.13;1.80;;;22.40;81.80;;;;;;5081166;28;20392;-82
2022/09/08 03:31:58;;;;;;;3.38;2.15;;;22.40;81.80;;;;;;5088766;28;20088;-82
2022/09/08 03:34:24;;;;;;;3.17;2.05;;;22.40;81.80;;;;;;5095720;28;20027;-81
2022/09/08 03:36:49;;;;;;;3.50;2.00;;;22.40;81.90;;;;;;5092714;28;20051;-82
2022/09/08 03:39:15;;;;;;;3.15;1.90;;;22.40;81.90;;;;;;5091452;28;20477;-83
2022/09/08 03:41:40;;;;;;;3.28;2.00;;;22.50;81.90;;;;;;5092774;28;20020;-81
2022/09/08 03:44:06;;;;;;;3.35;2.05;;;22.40;81.70;;;;;;5081480;28;20119;-82
2022/09/08 03:46:31;;;;;;;2.40;1.80;;;22.40;81.60;;;;;;5071781;28;20029;-82
2022/09/08 03:48:57;;;;;;;2.95;1.98;;;22.40;81.50;;;;;;5082270;28;20034;-82
2022/09/08 03:51:25;;;;;;;3.33;1.80;;;22.50;81.50;;;;;;5077137;28;20670;-81
2022/09/08 03:53:52;;;;;;;2.72;1.83;;;22.40;81.50;;;;;;5078907;28;20028;-81
2022/09/08 03:56:18;;;;;;;3.58;2.03;;;22.40;81.50;;;;;;5077994;28;20091;-82
2022/09/08 03:58:44;;;;;;;4.10;2.00;;;22.40;81.50;;;;;;5078794;28;20812;-81
2022/09/08 04:01:15;;;;;;;3.03;1.90;;;22.40;81.60;;;;;;5090961;28;20485;-81
2022/09/08 04:03:42;;;;;;;;;;;22.40;81.70;;;;;;5081589;28;20020;-82
2022/09/08 04:06:08;;;;;;;3.88;2.20;;;22.40;81.70;;;;;;5089844;28;19961;-80
2022/09/08 04:08:34;;;;;;;3.13;1.90;;;22.40;81.80;;;;;;5092685;28;20017;-82
2022/09/08 04:11:00;;;;;;;3.97;2.10;;;22.40;81.80;;;;;;5089989;28;20020;-80
2022/09/08 04:13:28;;;;;;;3.60;2.10;;;22.30;81.80;;;;;;5076698;28;20043;-80
2022/09/08 04:15:54;;;;;;;2.88;1.90;;;22.40;81.80;;;;;;5086278;28;20020;-79
2022/09/08 04:18:20;;;;;;;3.33;2.00;;;22.30;81.80;;;;;;5077415;28;20032;-78
2022/09/08 04:21:01;;;;;;;2.42;1.77;;;22.30;81.80;;;;;;5089207;28;20032;-80
2022/09/08 04:23:28;;;;;;;3.63;2.00;;;22.30;81.80;;;;;;5082357;28;20036;-79
2022/09/08 04:25:55;;;;;;;3.05;1.83;;;22.40;81.90;;;;;;5087759;28;20043;-82
2022/09/08 04:28:20;;;;;;;2.70;1.90;;;22.30;81.70;;;;;;5076759;28;20378;-81
2022/09/08 04:30:46;;;;;;;2.90;2.10;;;22.40;81.70;;;;;;5067825;28;20028;-77
2022/09/08 04:33:12;;;;;;;3.53;1.83;;;22.40;81.60;;;;;;5075020;28;20073;-77
2022/09/08 04:35:37;;;;;;;3.70;2.42;;;22.40;81.50;;;;;;5064878;28;20515;-80
2022/09/08 04:38:03;;;;;;;3.65;2.40;;;22.40;81.50;;;;;;5077297;28;20031;-80
2022/09/08 04:40:29;;;;;;;3.60;2.10;;;22.40;82.00;;;;;;5069373;28;20024;-80
2022/09/08 04:42:55;;;;;;;3.30;2.20;;;22.40;81.60;;;;;;5088229;28;20063;-82
2022/09/08 04:45:20;;;;;;;2.75;1.88;;;22.40;82.10;;;;;;5079709;28;20035;-80
2022/09/08 04:47:46;;;;;;;3.75;2.25;;;22.40;81.60;;;;;;5066471;28;20032;-79
2022/09/08 04:50:12;;;;;;;3.58;2.17;;;22.30;81.60;;;;;;5050125;28;20029;-81
2022/09/08 04:52:38;;;;;;;3.60;2.05;;;22.30;81.70;;;;;;5057170;28;20564;-82
2022/09/08 04:55:04;;;;;;;4.10;2.28;;;22.30;81.70;;;;;;5086894;28;20032;-85
2022/09/08 04:57:29;;;;;;;3.38;2.00;;;22.30;81.70;;;;;;5081842;28;20028;-87
2022/09/08 04:59:55;;;;;;;3.40;2.00;;;22.30;81.80;;;;;;5084612;28;20505;-81
2022/09/08 05:02:21;;;;;;;5.07;2.80;;;22.30;81.80;;;;;;5074570;28;20055;-82
2022/09/08 05:04:47;;;;;;;4.90;2.85;;;22.30;81.80;;;;;;5091694;28;20182;-80
2022/09/08 05:07:12;;;;;;;4.05;2.10;;;22.30;81.70;;;;;;5091695;28;20064;-82
2022/09/08 05:09:38;;;;;;;4.53;2.10;;;22.30;81.70;;;;;;5093758;28;20465;-79
2022/09/08 05:12:04;;;;;;;3.40;1.90;;;22.20;81.50;;;;;;5082275;28;20025;-82
2022/09/08 05:14:29;;;;;;;3.65;2.20;;;22.30;81.50;;;;;;5074820;28;20035;-83
2022/09/08 05:16:55;;;;;;;4.15;2.60;;;22.30;81.40;;;;;;5061201;28;20029;-81
2022/09/08 05:19:20;;;;;;;4.38;2.30;;;22.30;81.30;;;;;;5081280;28;20403;-83
2022/09/08 05:21:46;;;;;;;4.43;2.70;;;22.40;81.40;;;;;;5084285;28;20024;-82
2022/09/08 05:24:11;;;;;;;4.72;2.95;;;22.40;81.30;;;;;;5080904;28;20123;-87
2022/09/08 05:26:37;;;;;;;5.65;2.90;;;22.30;81.30;;;;;;5074430;28;20039;-80
2022/09/08 05:29:03;;;;;;;4.47;2.80;;;22.30;81.30;;;;;;5085135;28;20032;-81
2022/09/08 05:31:30;;;;;;;6.20;2.78;;;22.30;81.30;;;;;;5084042;28;20048;-79
2022/09/08 05:33:58;;;;;;;5.63;3.13;;;22.30;81.30;;;;;;5075469;28;20044;-82
2022/09/08 05:36:27;;;;;;;4.88;3.03;;;22.30;81.40;;;;;;5072102;28;20039;-81
2022/09/08 05:38:54;;;;;;;4.38;2.75;;;22.30;81.50;;;;;;5075398;28;20040;-80
2022/09/08 05:41:20;;;;;;;4.32;2.53;;;22.30;81.50;;;;;;5072135;28;20021;-82
2022/09/08 05:43:46;;;;;;;5.13;2.97;;;22.30;81.50;;;;;;5076214;28;20048;-80
2022/09/08 05:46:12;;;;;;;5.55;3.17;;;22.30;81.60;;;;;;5074284;28;20308;-80
2022/09/08 05:48:37;;;;;;;5.20;2.90;;;22.20;81.50;;;;;;5074067;28;20066;-80
2022/09/08 05:51:11;;;;;;;4.35;2.92;;;22.20;81.60;;;;;;5074070;28;20503;-81
2022/09/08 05:53:37;;;;;;;4.28;2.72;;;22.20;81.50;;;;;;5075623;28;20024;-82
2022/09/08 05:56:06;;;;;;;5.18;2.90;;;22.30;81.50;;;;;;5073252;28;20083;-81
2022/09/08 05:58:32;;;;;;;4.80;2.70;;;22.30;81.50;;;;;;5074480;28;20463;-80
2022/09/08 06:01:10;;;;;;;5.13;2.95;;;22.30;81.40;;;;;;5073772;28;20070;-82
2022/09/08 06:03:36;;;;;;;5.68;2.75;;;22.30;81.30;;;;;;5072818;28;20034;-82
2022/09/08 06:06:07;;;;;;;4.20;2.85;;;22.30;81.20;;;;;;5072551;28;20120;-82
2022/09/08 06:08:33;;;;;;;4.05;2.83;;;22.30;81.20;;;;;;5073715;28;20032;-81
2022/09/08 06:10:58;;;;;;;5.45;3.05;;;22.30;81.20;;;;;;5071751;28;20093;-82
2022/09/08 06:13:24;;;;;;;5.50;2.95;;;22.30;81.20;;;;;;5071407;28;20072;-81
2022/09/08 06:15:50;;;;;;;4.18;2.90;;;22.30;81.20;;;;;;5073235;28;20556;-81
2022/09/08 06:18:19;;;;;;;4.65;2.83;;;22.30;81.30;;;;;;5070524;28;20024;-81
2022/09/08 06:20:45;;;;;;;5.13;3.08;;;22.30;81.40;;;;;;5072793;28;20481;-82
2022/09/08 06:23:12;;;;;;;4.95;3.22;;;22.30;81.40;;;;;;5071026;28;20028;-79
2022/09/08 06:25:40;;;;;;;5.57;3.00;;;22.30;81.50;;;;;;5072294;28;20472;-81
2022/09/08 06:28:27;;;;;;;5.00;2.88;;;22.20;81.50;;;;;;5070702;28;20028;-81
2022/09/08 06:30:55;;;;;;;4.78;2.97;;;22.20;81.50;;;;;;5070922;28;20032;-79
2022/09/08 06:33:33;;;;;;;5.20;3.10;;;22.20;81.60;;;;;;5071881;28;20517;-81
2022/09/08 06:36:15;;;;;;;4.75;3.00;;;22.20;81.50;;;;;;5070519;28;20025;-82
2022/09/08 06:38:46;;;;;;;5.10;3.10;;;22.20;81.50;;;;;;5070442;28;20028;-81
2022/09/08 06:41:14;;;;;;;;;;;22.20;81.60;;;;;;5071138;28;20032;-80
2022/09/08 06:43:44;;;;;;;5.03;3.13;;;22.20;81.50;;;;;;5071560;28;20000;-81
2022/09/08 06:46:37;;;;;;;4.05;2.53;;;22.20;81.50;;;;;;5070191;28;20024;-80
2022/09/08 06:49:03;;;;;;;4.38;2.75;;;22.20;81.40;;;;;;5069006;28;20063;-79
2022/09/08 06:51:42;;;;;;;4.65;2.80;;;22.20;81.40;;;;;;5069632;28;20397;-81
2022/09/08 06:54:36;;;;;;;5.20;2.50;;;22.30;81.30;;;;;;5071320;28;20024;-82
2022/09/08 06:57:29;;;;;;;4.28;2.90;;;22.30;81.30;;;;;;5069833;28;20058;-82
2022/09/08 07:00:04;;;;;;;4.82;3.15;;;22.30;81.20;;;;;;5062006;28;20041;-80
2022/09/08 07:03:05;;;;;;;6.13;2.85;;;22.30;81.30;;;;;;5071562;28;20028;-82
2022/09/08 07:05:57;;;;;;;4.47;2.90;;;22.30;81.40;;;;;;5070110;28;20029;-81
2022/09/08 07:08:50;;;;;;;4.38;2.88;;;22.20;81.40;;;;;;5071861;28;20032;-81
2022/09/08 07:11:37;;;;;;;5.00;3.00;;;22.20;81.40;;;;;;5072488;28;20637;-81
2022/09/08 07:14:33;;;;;;;4.55;3.08;;;22.20;81.50;;;;;;5072590;28;20048;-80
2022/09/08 07:17:04;;;;;;;4.57;3.03;;;22.20;81.50;;;;;;5071867;28;20024;-82
2022/09/08 07:19:52;;;;;;;5.38;3.17;;;22.20;81.50;;;;;;5071877;28;20171;-83
2022/09/08 07:22:31;;;;;;;5.30;3.20;;;22.20;81.60;;;;;;5072152;28;20025;-82
2022/09/08 07:25:17;;;;;;;4.72;3.10;;;22.20;81.60;;;;;;5072066;28;20028;-83
2022/09/08 07:27:45;;;;;;;4.15;2.80;;;22.20;81.60;;;;;;5071009;28;20119;-80
2022/09/08 07:30:18;;;;;;;4.88;2.83;;;22.20;81.60;;;;;;5070065;28;20397;-82
2022/09/08 07:32:49;;;;;;;4.22;2.80;;;22.20;81.50;;;;;;5070263;28;20071;-82
2022/09/08 07:35:24;;;;;;;;;;;22.20;81.50;;;;;;5070781;28;20025;-80
2022/09/08 07:37:53;;;;;;;3.83;2.60;;;22.20;81.40;;;;;;5071854;28;19908;-82
2022/09/08 07:40:35;;;;;;;4.15;2.53;;;22.20;81.30;;;;;;5071142;28;20485;-82
2022/09/08 07:43:01;;;;;;;5.20;3.03;;;22.20;81.20;;;;;;5070112;28;20081;-82
2022/09/08 07:45:46;;;;;;;4.75;3.10;;;22.20;81.30;;;;;;5071749;28;20522;-81
2022/09/08 07:48:50;;;;;;;4.63;3.08;;;22.20;81.30;;;;;;5069708;28;20302;-81
2022/09/08 07:51:19;;;;;;;4.53;2.97;;;22.20;81.30;;;;;;5069276;28;20256;-80
2022/09/08 07:54:00;;;;;;;4.53;2.88;;;22.20;81.40;;;;;;5069722;28;20025;-81
2022/09/08 07:56:39;;;;;;;;;;;22.20;81.40;;;;;;5069615;28;20170;-82
2022/09/08 07:59:21;;;;;;;5.40;3.10;;;22.20;81.50;;;;;;5069180;28;19909;-83
2022/09/08 08:02:07;;;;;;;4.68;3.10;;;22.20;81.60;;;;;;5071030;28;20826;-79
2022/09/08 08:04:38;;;;;;;4.30;2.75;;;22.20;81.50;;;;;;5073866;28;20597;-82
2022/09/08 08:07:19;;;;;;;4.93;3.05;;;22.20;81.60;;;;;;5071302;28;20077;-82
2022/09/08 08:10:11;;;;;;;4.07;2.80;;;22.20;81.60;;;;;;5071638;28;20078;-82
2022/09/08 08:12:48;;;;;;;4.20;2.65;;;22.10;81.60;;;;;;5071442;28;20140;-83
2022/09/08 08:15:16;;;;;;;4.13;2.60;;;22.20;81.60;;;;;;5071968;28;20039;-81
2022/09/08 08:17:58;;;;;;;3.72;2.60;;;22.20;81.60;;;;;;5069992;28;20025;-82
2022/09/08 08:20:26;;;;;;;4.15;2.70;;;22.20;81.50;;;;;;5070050;28;20031;-83
2022/09/08 08:23:34;;;;;;;4.30;2.60;;;22.20;81.40;;;;;;5069792;28;20024;-83
2022/09/08 08:26:39;;;;;;;4.65;2.97;;;22.20;81.40;;;;;;5026794;28;20041;-81
2022/09/08 08:29:39;;;;;;;4.20;2.70;;;22.20;81.20;;;;;;5072812;28;20362;-82
2022/09/08 08:32:17;;;;;;;4.72;2.50;;;22.20;81.30;;;;;;5040359;28;20032;-80
2022/09/08 08:34:53;;;;;;;3.85;2.33;;;22.20;81.30;;;;;;5063302;28;20041;-83
2022/09/08 08:37:23;;;;;;;4.13;2.70;;;22.20;81.30;;;;;;5048907;28;20029;-81
2022/09/08 08:39:52;;;;;;;4.07;2.70;;;22.20;81.30;;;;;;5049353;28;20101;-80
2022/09/08 08:42:42;;;;;;;4.05;2.63;;;22.20;81.30;;;;;;5049637;28;20033;-80
2022/09/08 08:45:08;;;;;;;;;;;22.20;81.30;;;;;;5051658;28;20111;-81
2022/09/08 08:47:57;;;;;;;4.03;2.60;;;22.20;81.40;;;;;;5050507;28;20007;-81
2022/09/08 08:50:34;;;;;;;4.03;2.50;;;22.20;81.40;;;;;;5049736;28;20029;-81
2022/09/08 08:53:49;;;;;;;3.90;2.70;;;22.20;81.40;;;;;;5050289;28;20028;-80
2022/09/08 08:56:30;;;;;;;3.95;2.40;;;22.20;81.50;;;;;;5016077;28;20487;-80
2022/09/08 08:59:17;;;;;;;4.03;2.60;;;22.10;81.40;;;;;;5049398;28;20024;-81
2022/09/08 09:02:10;;;;;;;3.75;2.53;;;22.20;81.50;;;;;;5048787;28;20039;-81
2022/09/08 09:04:46;;;;;;;3.95;2.30;;;22.20;81.40;;;;;;5048671;28;20033;-81
2022/09/08 09:07:45;;;;;;;3.60;2.67;;;22.20;81.40;;;;;;5049565;28;20056;-81
2022/09/08 09:10:31;;;;;;;3.50;2.40;;;22.20;81.30;;;;;;5048736;28;20032;-82
2022/09/08 09:13:28;;;;;;;3.53;2.60;;;22.20;81.20;;;;;;5048293;28;20236;-80
2022/09/08 09:16:45;;;;;;;3.92;2.50;;;22.20;81.20;;;;;;5049236;28;20029;-82
2022/09/08 09:19:20;;;;;;;3.47;2.40;;;22.20;81.20;;;;;;5023538;28;20036;-81
2022/09/08 09:21:52;;;;;;;3.78;2.42;;;22.20;81.20;;;;;;5049700;28;20045;-82
2022/09/08 09:24:28;;;;;;;3.75;2.50;;;22.20;81.30;;;;;;5048016;28;20040;-82
2022/09/08 09:26:54;;;;;;;3.50;2.28;;;22.20;81.40;;;;;;5047463;28;20040;-80
2022/09/08 09:29:25;;;;;;;4.30;2.40;;;22.10;81.30;;;;;;5047601;28;20029;-81
2022/09/08 09:32:09;;;;;;;3.83;2.47;;;22.20;81.40;;;;;;5049426;28;20477;-82
2022/09/08 09:34:59;;;;;;;4.03;2.55;;;22.10;81.40;;;;;;5047579;28;20072;-83
2022/09/08 09:37:48;;;;;;;4.03;2.30;;;22.10;81.40;;;;;;5047279;28;20021;-79
2022/09/08 09:40:29;;;;;;;4.15;2.70;;;22.10;81.50;;;;;;5048835;28;20036;-79
2022/09/08 09:43:31;;;;;;;3.30;2.17;;;22.10;81.50;;;;;;5047683;28;20112;-82
2022/09/08 09:46:11;;;;;;;4.03;2.40;;;22.10;81.50;;;;;;5047416;28;20051;-80
2022/09/08 09:49:02;;;;;;;3.22;2.20;;;22.10;81.50;;;;;;5048664;28;20474;-81
2022/09/08 09:52:06;;;;;;;4.38;2.70;;;22.20;81.50;;;;;;5046780;28;20032;-81
2022/09/08 09:54:49;;;;;;;3.38;2.22;;;22.20;81.40;;;;;;5050370;28;20052;-79
2022/09/08 09:57:29;;;;;;;4.35;2.45;;;22.20;81.40;;;;;;5050574;28;20115;-81
2022/09/08 10:00:17;;;;;;;3.50;2.33;;;22.20;81.30;;;;;;5050521;28;20127;-81
2022/09/08 10:03:02;;;;;;;3.83;2.50;;;22.20;81.30;;;;;;5050966;28;20033;-79
2022/09/08 10:06:06;;;;;;;3.35;2.40;;;22.20;81.40;;;;;;5051142;28;20512;-82
2022/09/08 10:08:37;;;;;;;3.00;2.13;;;22.20;81.40;;;;;;5052164;28;20033;-79
2022/09/08 10:11:13;;;;;;;;;;;22.10;81.40;;;;;;5061022;28;20525;-81
2022/09/08 10:14:26;;;;;;;5.38;2.50;;;22.20;81.40;;;;;;5072799;28;19908;-80
2022/09/08 10:17:31;;;;;;;4.03;2.67;;;22.10;81.40;;;;;;5051959;28;20128;-82
2022/09/08 10:20:16;;;;;;;3.97;2.33;;;22.10;81.40;;;;;;5072700;28;20033;-83
2022/09/08 10:23:16;;;;;;;3.42;2.38;;;22.10;81.40;;;;;;5074155;28;20033;-82
2022/09/08 10:26:20;;;;;;;3.40;2.40;;;22.10;82.00;;;;;;5072698;28;20036;-81
2022/09/08 10:29:29;;;;;;;3.75;2.28;;;22.10;81.50;;;;;;5072602;28;20116;-82
2022/09/08 10:32:32;;;;;;;3.10;2.20;;;22.10;81.50;;;;;;5057703;28;20139;-86
2022/09/08 10:35:04;;;;;;;2.88;2.15;;;22.10;81.40;;;;;;5073762;28;20028;-84
2022/09/08 10:38:07;;;;;;;2.88;2.05;;;22.20;81.40;;;;;;5072291;28;20051;-85
2022/09/08 10:40:54;;;;;;;3.13;2.17;;;22.10;81.30;;;;;;5071996;28;20035;-84
2022/09/08 10:43:38;;;;;;;2.95;1.95;;;22.20;81.30;;;;;;5072553;28;20028;-86
2022/09/08 10:46:21;;;;;;;3.60;2.10;;;22.20;81.10;;;;;;5073356;28;20235;-83
2022/09/08 10:48:59;;;;;;;3.00;2.00;;;22.20;81.10;;;;;;5069167;28;20078;-86
2022/09/08 10:51:44;;;;;;;4.63;2.30;;;22.20;81.10;;;;;;5070012;28;20119;-81
2022/09/08 10:54:22;;;;;;;3.53;2.33;;;22.20;81.10;;;;;;5069076;28;20115;-86
2022/09/08 10:56:48;;;;;;;3.22;2.15;;;22.20;81.10;;;;;;5073908;28;20032;-82
2022/09/08 10:59:54;;;;;;;2.97;2.17;;;22.20;81.10;;;;;;5087202;28;20543;-83
2022/09/08 11:02:54;;;;;;;3.13;2.10;;;22.20;81.20;;;;;;5081238;28;20079;-84
2022/09/08 11:05:19;;;;;;;2.92;2.00;;;22.10;81.20;;;;;;5070014;28;20109;-81
2022/09/08 11:08:13;;;;;;;3.40;2.17;;;22.10;81.30;;;;;;5066126;28;20524;-81
2022/09/08 11:11:01;;;;;;;3.95;2.30;;;22.10;81.30;;;;;;5065520;28;20111;-88
2022/09/08 11:13:42;;;;;;;3.17;2.10;;;22.10;81.40;;;;;;5069595;28;20094;-83
2022/09/08 11:16:15;;;;;;;3.47;2.25;;;22.10;81.50;;;;;;5065589;28;20033;-80
2022/09/08 11:18:58;;;;;;;3.38;2.30;;;22.10;81.40;;;;;;5076545;28;20078;-80
2022/09/08 11:21:36;;;;;;;2.28;1.80;;;22.10;81.40;;;;;;5089929;28;20028;-80
2022/09/08 11:24:02;;;;;;;3.53;1.92;;;22.10;81.40;;;;;;5088565;28;20070;-79
2022/09/08 11:26:35;;;;;;;2.88;2.17;;;22.10;81.40;;;;;;5089348;28;20059;-81
2022/09/08 11:29:11;;;;;;;3.03;1.95;;;22.10;81.30;;;;;;5089118;28;20023;-82
2022/09/08 11:32:02;;;;;;;3.42;2.10;;;22.20;81.30;;;;;;5090452;28;20024;-80
2022/09/08 11:34:39;;;;;;;2.72;1.90;;;22.20;81.30;;;;;;5090899;28;20016;-80
2022/09/08 11:37:29;;;;;;;3.20;2.30;;;22.20;81.30;;;;;;5089555;28;20032;-80
2022/09/08 11:40:32;;;;;;;3.60;2.33;;;22.10;81.30;;;;;;5090550;28;20028;-80
2022/09/08 11:43:19;;;;;;;3.65;2.22;;;22.10;81.40;;;;;;5090288;28;20024;-81
2022/09/08 11:45:59;;;;;;;3.25;2.20;;;22.10;81.40;;;;;;5091285;28;20054;-82
2022/09/08 11:48:46;;;;;;;3.63;2.28;;;22.10;81.50;;;;;;5090303;28;20027;-81
2022/09/08 11:51:42;;;;;;;3.20;2.03;;;22.10;81.50;;;;;;5091082;28;20020;-80
2022/09/08 11:54:44;;;;;;;2.88;2.00;;;22.10;81.50;;;;;;5090895;28;20012;-81
2022/09/08 11:57:52;;;;;;;3.35;2.33;;;22.00;81.50;;;;;;5089044;28;20032;-81
2022/09/08 12:00:42;;;;;;;2.90;2.20;;;22.00;81.60;;;;;;5089181;28;20652;-81
2022/09/08 12:03:33;;;;;;;2.85;2.00;;;22.10;81.70;;;;;;5089406;28;20114;-79
2022/09/08 12:06:10;;;;;;;3.55;2.22;;;22.10;81.60;;;;;;5088704;28;20036;-80
2022/09/08 12:08:50;;;;;;;2.50;1.83;;;22.10;81.60;;;;;;5088776;28;20089;-81
2022/09/08 12:11:51;;;;;;;2.83;2.03;;;22.10;81.40;;;;;;5089774;28;20303;-81
2022/09/08 12:14:32;;;;;;;2.45;1.90;;;22.10;81.40;;;;;;5056754;28;20571;-79
2022/09/08 12:17:28;;;;;;;2.78;1.90;;;22.20;81.30;;;;;;5087681;28;20126;-79
2022/09/08 12:20:50;;;;;;;3.13;2.05;;;22.20;81.20;;;;;;5089988;28;20052;-81
2022/09/08 12:23:48;;;;;;;3.13;1.80;;;22.20;81.20;;;;;;5026391;28;20080;-79
2022/09/08 12:26:19;;;;;;;2.60;1.90;;;22.20;81.10;;;;;;5088207;28;20034;-80
2022/09/08 12:29:34;;;;;;;3.05;2.00;;;22.10;81.10;;;;;;5088020;28;20024;-78
2022/09/08 12:32:34;;;;;;;3.15;2.05;;;22.20;81.10;;;;;;5064768;28;20038;-80
2022/09/08 12:35:14;;;;;;;3.63;2.13;;;22.10;81.00;;;;;;5091571;28;20028;-81
2022/09/08 12:37:56;;;;;;;2.80;1.90;;;22.20;81.10;;;;;;5090076;28;20111;-81
2022/09/08 12:40:50;;;;;;;2.58;1.70;;;22.20;81.10;;;;;;5089351;28;20493;-81
2022/09/08 12:43:23;;;;;;;2.72;1.90;;;22.10;81.00;;;;;;5091503;28;20065;-82
2022/09/08 12:46:13;;;;;;;2.90;1.90;;;22.20;81.10;;;;;;5089571;28;20054;-81
2022/09/08 12:48:48;;;;;;;2.60;1.98;;;22.20;81.00;;;;;;5089417;28;20028;-81
2022/09/08 12:51:31;;;;;;;2.78;2.00;;;22.20;80.90;;;;;;5088157;28;20507;-80
2022/09/08 12:54:14;;;;;;;2.85;1.70;;;22.20;80.80;;;;;;5088896;28;20024;-81
2022/09/08 12:57:11;;;;;;;2.70;2.03;;;22.30;80.70;;;;;;5089302;28;20042;-80
2022/09/08 13:00:00;;;;;;;2.50;1.80;;;22.30;80.60;;;;;;5088249;28;20021;-81
2022/09/08 13:02:28;;;;;;;2.42;1.80;;;22.30;80.30;;;;;;5089644;28;20837;-81
2022/09/08 13:05:15;;;;;;;2.95;1.90;;;22.30;80.20;;;;;;5087925;28;20035;-80
2022/09/08 13:08:22;;;;;;;2.50;1.70;;;22.40;80.70;;;;;;5086952;28;20024;-80
2022/09/08 13:10:53;;;;;;;2.25;1.65;;;22.40;80.20;;;;;;5087752;28;20481;-79
2022/09/08 13:13:44;;;;;;;2.33;1.80;;;22.40;80.20;;;;;;5087504;28;20035;-81
2022/09/08 13:16:21;;;;;;;2.15;1.70;;;22.40;80.20;;;;;;5088548;28;20404;-79
2022/09/08 13:19:11;;;;;;;2.13;1.60;;;22.40;80.20;;;;;;5086593;28;20476;-82
2022/09/08 13:21:39;;;;;;;2.97;1.70;;;22.40;80.30;;;;;;5089369;28;20031;-81
2022/09/08 13:24:35;;;;;;;2.70;1.80;;;22.30;80.20;;;;;;5088999;28;20124;-80
2022/09/08 13:27:00;;;;;;;1.85;1.50;;;22.30;80.20;;;;;;5088958;28;20032;-79
2022/09/08 13:29:32;;;;;;;2.90;1.75;;;22.30;80.30;;;;;;5092946;28;20082;-81
2022/09/08 13:32:19;;;;;;;2.33;1.73;;;22.30;80.30;;;;;;5092575;28;20040;-80
2022/09/08 13:35:09;;;;;;;2.85;1.80;;;22.30;80.40;;;;;;5064315;28;20400;-81
2022/09/08 13:37:53;;;;;;;;;;;22.30;80.50;;;;;;5053494;28;20544;-81